Latest Weather Observations for Warracknabeal Airport

IDV60801

Issued at 8:52 am EST Saturday 24 August 2019 (issued every 10 minutes, with the page automatically refreshed every 10 minutes)

About weather observations | Map of weather stations | Latest weather observations for VIC | Other Formats
Station Details ID: 078018 Name: WARRACKNABEAL AIRPORT Lat: -36.32 Lon: 142.42 Height: 118.3 m
Data from the previous 72 hours. | See also: Recent months at Warracknabeal Airport
Date/Time
EST
Temp
°C
App
Temp
°C
Dew
Point
°C
Rel
Hum
%
Delta-T
°C
Wind Press
QNH
hPa
Press
MSL
hPa
Rain since
9am
mm
Dir  Spd
km/h
Gust
km/h
Spd
kts
Gust
kts
24/08:30am 7.0 2.5 4.3 83 1.2 N 17 24 9 13 1016.0 1016.2 0.0
24/08:00am 5.0 0.4 3.7 91 0.5 N 17 20 9 11 1015.9 1016.1 0.0
24/07:30am 3.8 -1.0 2.8 93 0.4 N 17 19 9 10 1015.9 1016.1 0.0
24/07:00am 3.6 -1.2 2.6 93 0.4 N 17 20 9 11 1015.8 1016.0 0.0
24/06:30am 4.0 -1.1 2.8 92 0.5 N 19 20 10 11 1015.9 1016.1 0.0
24/06:00am 4.4 -0.9 2.9 90 0.6 N 20 24 11 13 1015.6 1015.8 0.0
24/05:30am 4.2 -0.9 3.0 92 0.5 N 19 24 10 13 1015.8 1016.0 0.0
24/05:00am 3.8 -0.6 2.9 94 0.4 NNE 15 17 8 9 1016.2 1016.4 0.0
24/04:30am 3.2 -1.2 2.8 97 0.2 NNE 15 19 8 10 1016.3 1016.5 0.0
24/04:00am 3.3 -0.3 2.7 96 0.2 NNE 11 15 6 8 1016.6 1016.8 0.0
24/03:30am 3.7 -0.6 3.3 97 0.2 NNE 15 17 8 9 1017.1 1017.2 0.0
24/03:00am 3.0 -1.4 2.7 98 0.1 NNE 15 15 8 8 1017.4 1017.6 0.0
24/02:30am 2.9 -1.1 2.8 99 0.0 NNE 13 15 7 8 1017.9 1018.1 0.0
24/02:00am 3.0 -1.0 2.9 99 0.0 NNE 13 15 7 8 1018.3 1018.5 0.0
24/01:30am 2.9 -1.1 2.6 98 0.1 NNE 13 15 7 8 1018.6 1018.8 0.0
24/01:00am 3.2 -0.8 2.8 97 0.2 NNE 13 15 7 8 1018.8 1019.0 0.0
24/12:30am 3.8 -0.1 3.4 97 0.2 NNE 13 13 7 7 1019.0 1019.2 0.0
24/12:00am 3.8 -0.1 3.5 98 0.1 NNE 13 13 7 7 1019.1 1019.3 0.0
 
Date/Time
EST
Temp
°C
App
Temp
°C
Dew
Point
°C
Rel
Hum
%
Delta-T
°C
Wind Press
QNH
hPa
Press
MSL
hPa
Rain since
9am
mm
Dir  Spd
km/h
Gust
km/h
Spd
kts
Gust
kts
23/11:30pm 4.1 0.6 3.5 96 0.2 NNE 11 13 6 7 1019.1 1019.3 0.0
23/11:00pm 5.5 1.9 4.8 95 0.3 NNE 13 15 7 8 1019.1 1019.3 0.0
23/10:30pm 5.0 1.3 4.4 96 0.3 NNE 13 15 7 8 1019.4 1019.6 0.0
23/10:00pm 5.3 1.3 4.9 97 0.2 NNE 15 17 8 9 1019.5 1019.7 0.0
23/09:30pm 5.3 1.3 5.0 98 0.1 NNE 15 15 8 8 1019.8 1020.0 0.0
23/09:00pm 5.9 2.4 5.3 96 0.3 NNE 13 15 7 8 1020.3 1020.5 0.0
23/08:30pm 6.5 2.7 5.9 96 0.3 NNE 15 17 8 9 1020.4 1020.6 0.0
23/08:00pm 6.2 2.0 5.6 96 0.3 NNE 17 19 9 10 1020.6 1020.8 0.0
23/07:30pm 6.5 3.1 5.8 95 0.3 N 13 13 7 7 1020.9 1021.1 0.0
23/07:00pm 7.1 4.1 5.9 92 0.5 N 11 13 6 7 1020.8 1021.0 0.0
23/06:30pm 8.5 5.6 6.6 88 0.9 N 11 13 6 7 1020.6 1020.8 0.0
23/06:00pm 10.5 7.4 7.2 80 1.6 N 13 15 7 8 1020.6 1020.8 0.0
23/05:30pm 13.7 10.7 7.9 68 2.9 N 13 17 7 9 1020.5 1020.7 0.0
23/05:00pm 14.7 10.9 7.7 63 3.5 N 17 22 9 12 1020.4 1020.6 0.0
23/04:30pm 15.2 10.4 7.5 60 3.8 N 22 30 12 16 1020.2 1020.4 0.0
23/04:00pm 15.3 10.1 7.3 59 4.0 N 24 32 13 17 1020.5 1020.7 0.0
23/03:30pm 15.5 11.3 8.3 62 3.7 N 20 24 11 13 1021.2 1021.4 0.0
23/03:00pm 15.2 10.4 7.3 59 3.9 N 22 30 12 16 1021.5 1021.7 0.0
23/02:30pm 14.9 10.6 7.7 62 3.6 NNW 20 30 11 16 1022.0 1022.2 0.0
23/02:00pm 14.6 9.6 7.9 64 3.3 NNW 24 32 13 17 1022.5 1022.7 0.0
23/01:30pm 14.1 9.9 8.3 68 2.9 NNW 20 33 11 18 1023.1 1023.3 0.0
23/01:00pm 13.5 9.1 7.3 66 3.0 N 20 28 11 15 1023.7 1023.9 0.0
23/12:30pm 12.7 8.5 7.4 70 2.6 N 19 28 10 15 1024.1 1024.3 0.0
23/12:00pm 13.1 8.7 7.5 69 2.7 N 20 28 11 15 1024.6 1024.9 0.0
23/11:30am 12.2 8.0 7.5 73 2.3 N 19 24 10 13 1025.2 1025.5 0.0
23/11:00am 11.3 7.0 7.0 75 2.1 N 19 24 10 13 1025.6 1025.9 0.0
23/10:30am 10.5 5.9 6.6 77 1.8 N 20 26 11 14 1026.0 1026.2 0.0
23/10:00am 8.9 5.5 6.0 82 1.3 N 13 15 7 8 1026.3 1026.5 0.0
23/09:30am 7.3 3.8 5.4 88 0.9 N 13 17 7 9 1026.6 1026.8 0.0
23/09:00am 5.9 3.2 5.8 99 0.0 S 9 13 5 7 1026.7 1026.9 0.2
23/08:30am 4.6 2.2 4.5 99 0.0 S 6 9 3 5 1026.6 1026.8 0.2
23/08:00am 2.7 -0.6 2.6 99 0.0 S 9 11 5 6 1026.4 1026.6 0.2
23/07:30am 1.2 -1.9 1.1 99 0.0 S 7 9 4 5 1026.3 1026.5 0.2
23/07:00am 0.5 -2.6 0.4 99 0.0 S 6 7 3 4 1026.2 1026.4 0.2
23/06:30am 1.0 -0.8 0.9 99 0.0 CALM 0 0 0 0 1026.0 1026.2 0.2
23/06:00am 0.2 -1.8 0.1 99 0.0 CALM 0 0 0 0 1025.9 1026.1 0.2
23/05:30am 0.1 -1.9 0.0 99 0.0 CALM 0 0 0 0 1025.9 1026.1 0.2
23/05:00am 0.6 -1.3 0.5 99 0.0 CALM 0 0 0 0 1025.5 1025.8 0.2
23/04:30am 1.3 -0.5 1.2 99 0.0 CALM 0 0 0 0 1025.9 1026.1 0.2
23/04:00am 1.0 -0.8 0.9 99 0.0 CALM 0 0 0 0 1026.1 1026.3 0.2
23/03:30am 0.9 -1.0 0.8 99 0.0 CALM 0 0 0 0 1026.0 1026.2 0.2
23/03:00am 1.1 -1.5 1.0 99 0.0 S 4 7 2 4 1026.5 1026.7 0.2
23/02:30am 1.3 -0.5 1.2 99 0.0 CALM 0 0 0 0 1026.6 1026.8 0.2
23/02:00am 2.0 -0.8 1.9 99 0.0 S 6 7 3 4 1026.7 1026.9 0.2
23/01:30am 2.6 0.3 2.5 99 0.0 S 4 9 2 5 1026.7 1026.9 0.2
23/01:00am 1.4 -0.4 1.3 99 0.0 CALM 0 0 0 0 1026.8 1027.0 0.2
23/12:30am 2.1 0.4 2.0 99 0.0 CALM 0 0 0 0 1027.1 1027.3 0.0
23/12:00am 2.9 -0.3 2.8 99 0.0 S 9 11 5 6 1027.2 1027.4 0.0
 
Date/Time
EST
Temp
°C
App
Temp
°C
Dew
Point
°C
Rel
Hum
%
Delta-T
°C
Wind Press
QNH
hPa
Press
MSL
hPa
Rain since
9am
mm
Dir  Spd
km/h
Gust
km/h
Spd
kts
Gust
kts
22/11:30pm 3.2 0.4 3.1 99 0.0 S 7 9 4 5 1027.2 1027.4 0.0
22/11:00pm 3.9 1.2 3.8 99 0.0 S 7 9 4 5 1027.2 1027.4 0.0
22/10:30pm 4.1 2.4 4.0 99 0.0 S 2 7 1 4 1027.2 1027.4 0.0
22/10:00pm 4.6 3.4 4.5 99 0.0 CALM 0 0 0 0 1027.1 1027.3 0.0
22/09:30pm 4.7 2.7 4.4 98 0.1 S 4 7 2 4 1027.0 1027.2 0.0
22/09:00pm 5.1 2.2 4.5 96 0.3 S 9 9 5 5 1026.9 1027.1 0.0
22/08:30pm 5.5 3.0 4.6 94 0.4 S 7 9 4 5 1026.9 1027.1 0.0
22/08:00pm 6.3 3.8 4.8 90 0.7 S 7 11 4 6 1026.7 1026.9 0.0
22/07:30pm 8.3 7.6 7.1 92 0.6 CALM 0 6 0 3 1026.5 1026.7 0.0
22/07:00pm 8.7 6.8 6.8 88 0.9 S 6 7 3 4 1026.5 1026.7 0.0
22/06:30pm 9.2 6.8 6.8 85 1.1 S 9 11 5 6 1026.2 1026.4 0.0
22/06:00pm 10.6 7.9 7.3 80 1.6 S 11 13 6 7 1026.0 1026.2 0.0
22/05:30pm 13.8 10.1 7.8 67 3.0 SSW 17 20 9 11 1025.6 1025.9 0.0
22/05:00pm 14.2 10.1 7.9 66 3.1 SW 19 28 10 15 1025.5 1025.8 0.0
22/04:30pm 14.8 10.4 7.4 61 3.7 SSW 20 26 11 14 1025.3 1025.6 0.0
22/04:00pm 15.7 10.9 7.2 57 4.2 SW 22 32 12 17 1025.1 1025.4 0.0
22/03:30pm 14.9 10.7 8.2 64 3.4 SSW 20 24 11 13 1024.9 1025.2 0.0
22/03:00pm 15.3 10.9 7.6 60 3.8 SSW 20 28 11 15 1025.0 1025.3 0.0
22/02:30pm 14.7 9.9 7.3 61 3.7 SSW 22 28 12 15 1025.0 1025.3 0.0
22/02:00pm 14.5 9.4 7.5 63 3.5 SSW 24 32 13 17 1025.2 1025.5 0.0
22/01:30pm 14.6 9.7 8.3 66 3.2 SSW 24 35 13 19 1025.3 1025.6 0.0
22/01:00pm 13.6 8.7 8.4 71 2.6 SSW 24 33 13 18 1025.5 1025.8 0.0
22/12:30pm 14.8 9.0 8.1 64 3.4 SSW 28 37 15 20 1025.4 1025.7 0.0
22/12:00pm 14.4 9.2 8.8 69 2.8 SSW 26 32 14 17 1025.6 1025.9 0.0
22/11:30am 14.0 8.6 9.6 75 2.3 SSW 28 37 15 20 1025.9 1026.1 0.0
22/11:00am 12.7 8.4 10.9 89 0.9 SW 24 35 13 19 1025.9 1026.1 0.0
22/10:30am 11.2 6.1 10.7 97 0.3 SW 28 35 15 19 1025.6 1025.9 0.0
22/10:00am 12.4 6.8 10.3 87 1.1 SW 30 39 16 21 1025.3 1025.6 0.0
22/09:30am 11.9 7.6 10.6 92 0.7 WSW 24 33 13 18 1025.0 1025.3 0.0
22/09:00am 11.4 6.7 10.5 94 0.5 SW 26 35 14 19 1024.8 1025.1 0.2
22/08:30am 10.6 6.3 9.4 92 0.6 SW 22 32 12 17 1024.6 1024.9 0.2
22/08:00am 10.5 4.9 8.9 90 0.8 SW 28 37 15 20 1024.1 1024.3 0.2
22/07:30am 9.8 5.0 8.7 93 0.5 WSW 24 30 13 16 1023.8 1024.0 0.2
22/07:00am 9.1 4.9 8.2 94 0.4 WSW 20 26 11 14 1023.5 1023.7 0.2
22/06:30am 8.9 4.8 8.5 97 0.2 WSW 20 26 11 14 1023.1 1023.3 0.2
22/06:00am 9.0 5.0 8.2 95 0.4 WSW 19 24 10 13 1022.9 1023.1 0.2
22/05:30am 9.7 5.2 8.6 93 0.5 WSW 22 28 12 15 1022.5 1022.7 0.2
22/05:00am 10.1 4.5 8.9 92 0.6 WSW 28 37 15 20 1022.5 1022.7 0.2
22/04:30am 9.8 5.2 9.5 98 0.2 WSW 24 32 13 17 1022.3 1022.5 0.2
22/04:00am 10.2 5.0 10.1 99 0.1 SW 28 43 15 23 1022.6 1022.8 0.2
22/03:30am 11.0 5.4 8.9 87 1.0 WSW 28 35 15 19 1022.3 1022.5 0.0
22/03:00am 11.0 5.0 8.8 86 1.1 WSW 30 41 16 22 1022.4 1022.6 0.0
22/02:30am 10.8 5.2 8.7 87 1.0 WSW 28 37 15 20 1022.7 1022.9 0.0
22/02:00am 11.1 4.7 8.7 85 1.2 WSW 32 43 17 23 1022.8 1023.0 0.0
22/01:30am 11.0 5.0 8.6 85 1.2 WSW 30 41 16 22 1022.8 1023.0 0.0
22/01:00am 10.9 5.4 9.2 89 0.8 W 28 35 15 19 1022.6 1022.8 0.0
22/12:30am 10.5 5.8 9.1 91 0.7 W 24 32 13 17 1022.5 1022.7 0.0
22/12:00am 10.8 6.6 9.6 92 0.6 W 22 30 12 16 1022.7 1022.9 0.0
 
Date/Time
EST
Temp
°C
App
Temp
°C
Dew
Point
°C
Rel
Hum
%
Delta-T
°C
Wind Press
QNH
hPa
Press
MSL
hPa
Rain since
9am
mm
Dir  Spd
km/h
Gust
km/h
Spd
kts
Gust
kts
21/11:30pm 10.6 7.0 9.8 95 0.4 W 19 26 10 14 1022.8 1023.0 0.0
21/11:00pm 10.5 6.9 10.0 97 0.3 W 19 24 10 13 1023.0 1023.2 0.0
21/10:30pm 10.3 7.1 10.0 98 0.2 W 17 24 9 13 1023.1 1023.3 0.0
21/10:00pm 10.5 6.6 9.6 94 0.5 W 20 26 11 14 1023.2 1023.4 0.0
21/09:30pm 11.2 7.5 10.0 92 0.6 W 20 26 11 14 1023.5 1023.7 0.0
21/09:00pm 11.4 7.8 10.0 91 0.7 W 19 26 10 14 1023.1 1023.3 0.0
21/08:30pm 11.7 8.0 10.1 90 0.8 W 20 30 11 16 1023.2 1023.4 0.0
21/08:00pm 12.0 7.1 10.1 88 1.0 W 26 33 14 18 1023.2 1023.4 0.0
21/07:30pm 12.2 8.1 10.1 87 1.1 W 22 32 12 17 1023.2 1023.4 0.0
21/07:00pm 11.9 8.2 10.0 88 1.0 W 20 28 11 15 1023.1 1023.3 0.0
21/06:30pm 12.1 7.5 9.7 85 1.2 WSW 24 33 13 18 1022.8 1023.0 0.0
21/06:00pm 12.7 8.8 9.3 80 1.7 WSW 20 30 11 16 1022.6 1022.8 0.0
21/05:30pm 13.7 8.7 9.4 75 2.2 WSW 26 33 14 18 1022.2 1022.4 0.0
21/05:00pm 14.3 8.8 9.3 72 2.6 WSW 28 37 15 20 1022.4 1022.6 0.0
21/04:30pm 14.7 8.4 9.1 69 2.9 WSW 32 46 17 25 1022.5 1022.7 0.0
21/04:00pm 15.2 8.2 8.4 64 3.4 WSW 35 46 19 25 1022.2 1022.4 0.0
21/03:30pm 15.4 8.6 9.1 66 3.2 WSW 35 48 19 26 1022.1 1022.3 0.0
21/03:00pm 16.1 10.4 11.1 72 2.7 WSW 32 48 17 26 1022.1 1022.3 0.0
21/02:30pm 16.2 10.4 10.9 71 2.8 WSW 32 44 17 24 1022.1 1022.3 0.0
21/02:00pm 16.5 11.2 11.2 71 2.9 WSW 30 43 16 23 1022.3 1022.5 0.0
21/01:30pm 16.1 11.7 11.7 75 2.4 WSW 26 33 14 18 1022.5 1022.7 0.0
21/01:00pm 14.3 9.5 11.6 84 1.4 SW 28 37 15 20 1022.8 1023.0 0.0
21/12:30pm 14.8 8.7 10.4 75 2.3 WSW 33 46 18 25 1023.3 1023.5 0.0
21/12:18pm 14.8 9.1 11.0 78 2.0 WSW 32 50 17 27 1023.4 1023.6 0.0
21/12:00pm 13.9 8.3 11.4 85 1.3 SW 32 43 17 23 1023.6 1023.8 0.0
21/11:30am 14.3 8.3 10.7 79 1.9 WSW 33 48 18 26 1023.4 1023.6 0.0
21/11:00am 14.4 8.5 11.2 81 1.7 WSW 33 44 18 24 1023.5 1023.7 0.0
21/10:30am 13.5 7.0 10.5 82 1.6 WSW 35 50 19 27 1023.8 1024.0 0.0
21/10:00am 12.9 7.7 11.6 92 0.7 W 30 39 16 21 1023.8 1024.0 0.0
21/09:30am 12.1 6.5 11.5 96 0.3 WSW 32 43 17 23 1023.9 1024.1 0.0
21/09:00am 11.9 6.5 11.0 94 0.5 W 30 39 16 21 1023.8 1024.0 0.2

Other formats

Comma delimited format used in spreadsheet applications
http://www.bom.gov.au/fwo/IDV60801/IDV60801.94920.axf

JavaScript Object Notation format (JSON) in row-major order
http://www.bom.gov.au/fwo/IDV60801/IDV60801.94920.json

Data quality

Most of these data are generated automatically and are frequently updated. Quality checks on data are not normally performed. It is possible for incorrect values to appear. Refer to information at About Latest Weather Observations and please check the disclaimer before using these data.